sensor_id;sensor_type;location;lat;lon;timestamp;P1;durP1;ratioP1;P2;durP2;ratioP2
24337;SDS011;12457;50.832;4.346;2022-07-29T00:01:32;4.93;;;2.03;;
24337;SDS011;12457;50.832;4.346;2022-07-29T00:03:58;9.25;;;2.38;;
24337;SDS011;12457;50.832;4.346;2022-07-29T00:06:27;6.85;;;2.10;;
24337;SDS011;12457;50.832;4.346;2022-07-29T00:08:59;7.72;;;2.08;;
24337;SDS011;12457;50.832;4.346;2022-07-29T00:11:25;6.22;;;1.77;;
24337;SDS011;12457;50.832;4.346;2022-07-29T00:13:51;8.65;;;2.00;;
24337;SDS011;12457;50.832;4.346;2022-07-29T00:16:16;10.52;;;2.53;;
24337;SDS011;12457;50.832;4.346;2022-07-29T00:18:42;7.00;;;1.90;;
24337;SDS011;12457;50.832;4.346;2022-07-29T00:21:08;6.80;;;2.40;;
24337;SDS011;12457;50.832;4.346;2022-07-29T00:23:33;5.18;;;2.10;;
24337;SDS011;12457;50.832;4.346;2022-07-29T00:25:59;6.50;;;1.83;;
24337;SDS011;12457;50.832;4.346;2022-07-29T00:28:25;10.90;;;2.33;;
24337;SDS011;12457;50.832;4.346;2022-07-29T00:30:50;4.53;;;1.80;;
24337;SDS011;12457;50.832;4.346;2022-07-29T00:33:16;6.68;;;1.98;;
24337;SDS011;12457;50.832;4.346;2022-07-29T00:35:41;10.45;;;2.13;;
24337;SDS011;12457;50.832;4.346;2022-07-29T00:38:11;8.32;;;2.10;;
24337;SDS011;12457;50.832;4.346;2022-07-29T00:40:38;3.80;;;1.85;;
24337;SDS011;12457;50.832;4.346;2022-07-29T00:43:04;12.30;;;1.95;;
24337;SDS011;12457;50.832;4.346;2022-07-29T00:45:30;5.07;;;2.03;;
24337;SDS011;12457;50.832;4.346;2022-07-29T00:47:56;6.13;;;2.15;;
24337;SDS011;12457;50.832;4.346;2022-07-29T00:50:22;6.85;;;1.75;;
24337;SDS011;12457;50.832;4.346;2022-07-29T00:52:49;8.80;;;2.20;;
24337;SDS011;12457;50.832;4.346;2022-07-29T00:55:16;8.02;;;2.20;;
24337;SDS011;12457;50.832;4.346;2022-07-29T00:57:42;7.00;;;1.90;;
24337;SDS011;12457;50.832;4.346;2022-07-29T01:00:11;6.50;;;2.35;;
24337;SDS011;12457;50.832;4.346;2022-07-29T01:02:38;5.28;;;2.10;;
24337;SDS011;12457;50.832;4.346;2022-07-29T01:05:04;7.43;;;1.70;;
24337;SDS011;12457;50.832;4.346;2022-07-29T01:07:32;7.88;;;2.00;;
24337;SDS011;12457;50.832;4.346;2022-07-29T01:10:00;5.35;;;2.13;;
24337;SDS011;12457;50.832;4.346;2022-07-29T01:12:29;5.50;;;1.95;;
24337;SDS011;12457;50.832;4.346;2022-07-29T01:15:02;6.53;;;1.80;;
24337;SDS011;12457;50.832;4.346;2022-07-29T01:17:41;2.45;;;2.00;;
24337;SDS011;12457;50.832;4.346;2022-07-29T01:20:17;8.68;;;2.28;;
24337;SDS011;12457;50.832;4.346;2022-07-29T01:34:23;7.70;;;2.35;;
24337;SDS011;12457;50.832;4.346;2022-07-29T01:37:01;9.50;;;2.35;;
24337;SDS011;12457;50.832;4.346;2022-07-29T01:39:43;6.43;;;1.92;;
24337;SDS011;12457;50.832;4.346;2022-07-29T01:42:35;10.15;;;1.98;;
24337;SDS011;12457;50.832;4.346;2022-07-29T01:47:43;11.73;;;2.20;;
24337;SDS011;12457;50.832;4.346;2022-07-29T01:50:16;6.45;;;2.40;;
24337;SDS011;12457;50.832;4.346;2022-07-29T01:52:58;5.28;;;2.25;;
24337;SDS011;12457;50.832;4.346;2022-07-29T01:55:29;6.72;;;2.17;;
24337;SDS011;12457;50.832;4.346;2022-07-29T01:58:00;11.65;;;2.13;;
24337;SDS011;12457;50.832;4.346;2022-07-29T02:00:30;5.65;;;2.10;;
24337;SDS011;12457;50.832;4.346;2022-07-29T02:02:57;3.78;;;2.28;;
24337;SDS011;12457;50.832;4.346;2022-07-29T02:05:26;7.75;;;2.05;;
24337;SDS011;12457;50.832;4.346;2022-07-29T02:07:53;8.57;;;2.60;;
24337;SDS011;12457;50.832;4.346;2022-07-29T02:10:23;9.50;;;2.45;;
24337;SDS011;12457;50.832;4.346;2022-07-29T02:12:53;12.65;;;2.28;;
24337;SDS011;12457;50.832;4.346;2022-07-29T02:15:20;6.93;;;2.30;;
24337;SDS011;12457;50.832;4.346;2022-07-29T02:17:53;4.70;;;2.17;;
24337;SDS011;12457;50.832;4.346;2022-07-29T02:20:22;8.32;;;2.35;;
24337;SDS011;12457;50.832;4.346;2022-07-29T02:22:49;5.70;;;2.40;;
24337;SDS011;12457;50.832;4.346;2022-07-29T02:25:17;13.38;;;2.28;;
24337;SDS011;12457;50.832;4.346;2022-07-29T02:27:50;3.00;;;1.80;;
24337;SDS011;12457;50.832;4.346;2022-07-29T02:30:17;5.25;;;2.00;;
24337;SDS011;12457;50.832;4.346;2022-07-29T02:32:47;5.10;;;2.58;;
24337;SDS011;12457;50.832;4.346;2022-07-29T02:35:14;6.53;;;2.05;;
24337;SDS011;12457;50.832;4.346;2022-07-29T02:37:42;6.63;;;2.17;;
24337;SDS011;12457;50.832;4.346;2022-07-29T02:40:11;7.82;;;2.28;;
24337;SDS011;12457;50.832;4.346;2022-07-29T02:42:39;9.70;;;2.20;;
24337;SDS011;12457;50.832;4.346;2022-07-29T02:45:07;7.13;;;2.33;;
24337;SDS011;12457;50.832;4.346;2022-07-29T02:47:34;9.48;;;2.50;;
24337;SDS011;12457;50.832;4.346;2022-07-29T02:50:09;6.70;;;2.22;;
24337;SDS011;12457;50.832;4.346;2022-07-29T02:52:41;5.43;;;2.47;;
24337;SDS011;12457;50.832;4.346;2022-07-29T02:57:56;12.15;;;2.58;;
24337;SDS011;12457;50.832;4.346;2022-07-29T03:00:27;7.07;;;2.25;;
24337;SDS011;12457;50.832;4.346;2022-07-29T03:02:55;11.75;;;2.30;;
24337;SDS011;12457;50.832;4.346;2022-07-29T03:05:24;5.93;;;2.80;;
24337;SDS011;12457;50.832;4.346;2022-07-29T03:08:09;5.63;;;2.28;;
24337;SDS011;12457;50.832;4.346;2022-07-29T03:10:37;7.03;;;2.40;;
24337;SDS011;12457;50.832;4.346;2022-07-29T03:13:10;8.93;;;2.50;;
24337;SDS011;12457;50.832;4.346;2022-07-29T03:15:38;8.18;;;2.58;;
24337;SDS011;12457;50.832;4.346;2022-07-29T03:18:07;8.13;;;3.13;;
24337;SDS011;12457;50.832;4.346;2022-07-29T03:20:44;11.23;;;2.75;;
24337;SDS011;12457;50.832;4.346;2022-07-29T03:23:10;5.68;;;2.45;;
24337;SDS011;12457;50.832;4.346;2022-07-29T03:25:36;6.72;;;2.28;;
24337;SDS011;12457;50.832;4.346;2022-07-29T03:28:01;3.58;;;2.13;;
24337;SDS011;12457;50.832;4.346;2022-07-29T03:30:27;5.88;;;2.40;;
24337;SDS011;12457;50.832;4.346;2022-07-29T03:32:55;9.18;;;2.60;;
24337;SDS011;12457;50.832;4.346;2022-07-29T03:35:21;9.35;;;2.15;;
24337;SDS011;12457;50.832;4.346;2022-07-29T03:37:47;11.13;;;2.97;;
24337;SDS011;12457;50.832;4.346;2022-07-29T03:40:14;7.57;;;2.55;;
24337;SDS011;12457;50.832;4.346;2022-07-29T03:42:44;5.28;;;2.53;;
24337;SDS011;12457;50.832;4.346;2022-07-29T03:45:14;6.32;;;2.33;;
24337;SDS011;12457;50.832;4.346;2022-07-29T03:47:45;6.72;;;2.65;;
24337;SDS011;12457;50.832;4.346;2022-07-29T03:50:18;10.82;;;2.78;;
24337;SDS011;12457;50.832;4.346;2022-07-29T03:52:57;5.25;;;2.42;;
24337;SDS011;12457;50.832;4.346;2022-07-29T03:55:23;9.65;;;3.05;;
24337;SDS011;12457;50.832;4.346;2022-07-29T03:57:53;5.43;;;2.58;;
24337;SDS011;12457;50.832;4.346;2022-07-29T04:00:28;9.65;;;2.58;;
24337;SDS011;12457;50.832;4.346;2022-07-29T04:02:55;13.18;;;2.70;;
24337;SDS011;12457;50.832;4.346;2022-07-29T04:05:22;7.93;;;2.92;;
24337;SDS011;12457;50.832;4.346;2022-07-29T04:07:48;7.57;;;2.33;;
24337;SDS011;12457;50.832;4.346;2022-07-29T04:10:14;4.25;;;2.47;;
24337;SDS011;12457;50.832;4.346;2022-07-29T04:12:41;6.10;;;2.92;;
24337;SDS011;12457;50.832;4.346;2022-07-29T04:15:07;6.60;;;2.63;;
24337;SDS011;12457;50.832;4.346;2022-07-29T04:17:33;5.90;;;2.47;;
24337;SDS011;12457;50.832;4.346;2022-07-29T04:19:59;8.15;;;2.97;;
24337;SDS011;12457;50.832;4.346;2022-07-29T04:22:25;10.40;;;2.83;;
24337;SDS011;12457;50.832;4.346;2022-07-29T04:24:50;6.03;;;2.90;;
24337;SDS011;12457;50.832;4.346;2022-07-29T04:27:16;8.25;;;3.15;;
24337;SDS011;12457;50.832;4.346;2022-07-29T04:29:43;10.38;;;3.72;;
24337;SDS011;12457;50.832;4.346;2022-07-29T04:32:08;7.30;;;3.03;;
24337;SDS011;12457;50.832;4.346;2022-07-29T04:34:36;9.52;;;3.10;;
24337;SDS011;12457;50.832;4.346;2022-07-29T04:37:12;7.68;;;3.42;;
24337;SDS011;12457;50.832;4.346;2022-07-29T04:39:37;9.82;;;3.05;;
24337;SDS011;12457;50.832;4.346;2022-07-29T04:42:03;11.15;;;3.42;;
24337;SDS011;12457;50.832;4.346;2022-07-29T04:44:29;13.25;;;3.45;;
24337;SDS011;12457;50.832;4.346;2022-07-29T04:47:04;7.07;;;3.80;;
24337;SDS011;12457;50.832;4.346;2022-07-29T04:49:39;10.10;;;3.65;;
24337;SDS011;12457;50.832;4.346;2022-07-29T04:52:08;10.15;;;3.50;;
24337;SDS011;12457;50.832;4.346;2022-07-29T04:54:34;6.72;;;3.50;;
24337;SDS011;12457;50.832;4.346;2022-07-29T04:57:05;7.50;;;3.58;;
24337;SDS011;12457;50.832;4.346;2022-07-29T04:59:34;5.57;;;3.42;;
24337;SDS011;12457;50.832;4.346;2022-07-29T05:02:03;9.18;;;3.67;;
24337;SDS011;12457;50.832;4.346;2022-07-29T05:04:32;7.57;;;3.70;;
24337;SDS011;12457;50.832;4.346;2022-07-29T05:07:00;7.95;;;3.30;;
24337;SDS011;12457;50.832;4.346;2022-07-29T05:09:26;6.90;;;3.35;;
24337;SDS011;12457;50.832;4.346;2022-07-29T05:11:52;19.30;;;3.50;;
24337;SDS011;12457;50.832;4.346;2022-07-29T05:14:17;7.28;;;3.40;;
24337;SDS011;12457;50.832;4.346;2022-07-29T05:16:43;6.70;;;3.10;;
24337;SDS011;12457;50.832;4.346;2022-07-29T05:19:08;8.50;;;3.13;;
24337;SDS011;12457;50.832;4.346;2022-07-29T05:21:34;10.10;;;3.35;;
24337;SDS011;12457;50.832;4.346;2022-07-29T05:24:00;9.30;;;3.42;;
24337;SDS011;12457;50.832;4.346;2022-07-29T05:26:27;7.50;;;3.38;;
24337;SDS011;12457;50.832;4.346;2022-07-29T05:28:53;6.15;;;3.15;;
24337;SDS011;12457;50.832;4.346;2022-07-29T05:31:22;6.93;;;2.95;;
24337;SDS011;12457;50.832;4.346;2022-07-29T05:33:53;7.78;;;3.88;;
24337;SDS011;12457;50.832;4.346;2022-07-29T05:36:19;5.65;;;3.15;;
24337;SDS011;12457;50.832;4.346;2022-07-29T05:38:45;7.90;;;2.95;;
24337;SDS011;12457;50.832;4.346;2022-07-29T05:41:10;11.50;;;3.22;;
24337;SDS011;12457;50.832;4.346;2022-07-29T05:43:36;6.93;;;3.08;;
24337;SDS011;12457;50.832;4.346;2022-07-29T05:46:02;7.38;;;3.20;;
24337;SDS011;12457;50.832;4.346;2022-07-29T05:48:28;5.75;;;3.45;;
24337;SDS011;12457;50.832;4.346;2022-07-29T05:50:57;11.70;;;3.67;;
24337;SDS011;12457;50.832;4.346;2022-07-29T05:53:26;9.10;;;3.85;;
24337;SDS011;12457;50.832;4.346;2022-07-29T05:55:52;14.48;;;3.85;;
24337;SDS011;12457;50.832;4.346;2022-07-29T05:58:18;9.40;;;4.00;;
24337;SDS011;12457;50.832;4.346;2022-07-29T06:00:44;11.15;;;4.10;;
24337;SDS011;12457;50.832;4.346;2022-07-29T06:03:10;10.05;;;3.50;;
24337;SDS011;12457;50.832;4.346;2022-07-29T06:05:39;8.65;;;3.88;;
24337;SDS011;12457;50.832;4.346;2022-07-29T06:08:08;7.13;;;3.42;;
24337;SDS011;12457;50.832;4.346;2022-07-29T06:10:35;7.72;;;3.42;;
24337;SDS011;12457;50.832;4.346;2022-07-29T06:13:01;6.78;;;3.20;;
24337;SDS011;12457;50.832;4.346;2022-07-29T06:15:26;5.13;;;2.60;;
24337;SDS011;12457;50.832;4.346;2022-07-29T06:17:52;8.50;;;3.40;;
24337;SDS011;12457;50.832;4.346;2022-07-29T06:20:17;8.65;;;3.85;;
24337;SDS011;12457;50.832;4.346;2022-07-29T06:22:45;12.00;;;3.20;;
24337;SDS011;12457;50.832;4.346;2022-07-29T06:25:10;7.57;;;3.88;;
24337;SDS011;12457;50.832;4.346;2022-07-29T06:27:36;8.50;;;3.33;;
24337;SDS011;12457;50.832;4.346;2022-07-29T06:30:08;6.40;;;3.05;;
24337;SDS011;12457;50.832;4.346;2022-07-29T06:32:46;5.00;;;2.87;;
24337;SDS011;12457;50.832;4.346;2022-07-29T06:35:13;7.07;;;3.10;;
24337;SDS011;12457;50.832;4.346;2022-07-29T06:37:38;10.18;;;3.00;;
24337;SDS011;12457;50.832;4.346;2022-07-29T06:40:04;10.65;;;3.55;;
24337;SDS011;12457;50.832;4.346;2022-07-29T06:42:48;7.45;;;3.40;;
24337;SDS011;12457;50.832;4.346;2022-07-29T06:45:14;5.30;;;2.97;;
24337;SDS011;12457;50.832;4.346;2022-07-29T06:47:41;7.07;;;2.85;;
24337;SDS011;12457;50.832;4.346;2022-07-29T06:50:06;7.72;;;3.05;;
24337;SDS011;12457;50.832;4.346;2022-07-29T06:52:36;10.48;;;3.05;;
24337;SDS011;12457;50.832;4.346;2022-07-29T06:55:02;9.07;;;2.80;;
24337;SDS011;12457;50.832;4.346;2022-07-29T06:57:31;7.40;;;3.13;;
24337;SDS011;12457;50.832;4.346;2022-07-29T07:00:04;6.68;;;3.28;;
24337;SDS011;12457;50.832;4.346;2022-07-29T07:02:30;10.52;;;3.30;;
24337;SDS011;12457;50.832;4.346;2022-07-29T07:04:56;16.63;;;3.25;;
24337;SDS011;12457;50.832;4.346;2022-07-29T07:07:23;14.38;;;3.03;;
24337;SDS011;12457;50.832;4.346;2022-07-29T07:09:53;7.25;;;3.30;;
24337;SDS011;12457;50.832;4.346;2022-07-29T07:12:18;9.52;;;3.60;;
24337;SDS011;12457;50.832;4.346;2022-07-29T07:14:44;8.18;;;3.10;;
24337;SDS011;12457;50.832;4.346;2022-07-29T07:17:09;6.93;;;3.30;;
24337;SDS011;12457;50.832;4.346;2022-07-29T07:19:35;9.20;;;3.28;;
24337;SDS011;12457;50.832;4.346;2022-07-29T07:22:01;10.35;;;3.40;;
24337;SDS011;12457;50.832;4.346;2022-07-29T07:24:30;8.18;;;3.30;;
24337;SDS011;12457;50.832;4.346;2022-07-29T07:27:04;7.43;;;3.50;;
24337;SDS011;12457;50.832;4.346;2022-07-29T07:29:30;11.48;;;3.75;;
24337;SDS011;12457;50.832;4.346;2022-07-29T07:31:57;11.52;;;3.58;;
24337;SDS011;12457;50.832;4.346;2022-07-29T07:34:22;9.57;;;3.97;;
24337;SDS011;12457;50.832;4.346;2022-07-29T07:36:48;9.95;;;3.85;;
24337;SDS011;12457;50.832;4.346;2022-07-29T07:39:14;7.38;;;3.50;;
24337;SDS011;12457;50.832;4.346;2022-07-29T07:41:39;19.48;;;4.05;;
24337;SDS011;12457;50.832;4.346;2022-07-29T07:44:05;11.07;;;3.35;;
24337;SDS011;12457;50.832;4.346;2022-07-29T07:46:31;14.60;;;4.22;;
24337;SDS011;12457;50.832;4.346;2022-07-29T07:48:57;22.70;;;4.03;;
24337;SDS011;12457;50.832;4.346;2022-07-29T07:51:22;8.15;;;3.70;;
24337;SDS011;12457;50.832;4.346;2022-07-29T07:53:48;9.93;;;3.13;;
24337;SDS011;12457;50.832;4.346;2022-07-29T07:56:15;13.05;;;2.75;;
24337;SDS011;12457;50.832;4.346;2022-07-29T07:58:41;10.55;;;3.03;;
24337;SDS011;12457;50.832;4.346;2022-07-29T08:01:10;10.60;;;3.22;;
24337;SDS011;12457;50.832;4.346;2022-07-29T08:03:36;23.98;;;4.13;;
24337;SDS011;12457;50.832;4.346;2022-07-29T08:06:05;10.50;;;3.40;;
24337;SDS011;12457;50.832;4.346;2022-07-29T08:08:36;10.27;;;3.37;;
24337;SDS011;12457;50.832;4.346;2022-07-29T08:11:02;6.82;;;3.22;;
24337;SDS011;12457;50.832;4.346;2022-07-29T08:13:28;12.38;;;3.22;;
24337;SDS011;12457;50.832;4.346;2022-07-29T08:15:55;8.82;;;3.38;;
24337;SDS011;12457;50.832;4.346;2022-07-29T08:18:36;11.55;;;3.40;;
24337;SDS011;12457;50.832;4.346;2022-07-29T08:21:03;7.63;;;3.58;;
24337;SDS011;12457;50.832;4.346;2022-07-29T08:23:29;6.78;;;3.40;;
24337;SDS011;12457;50.832;4.346;2022-07-29T08:26:04;8.48;;;3.08;;
24337;SDS011;12457;50.832;4.346;2022-07-29T08:28:48;8.90;;;2.95;;
24337;SDS011;12457;50.832;4.346;2022-07-29T08:31:15;6.60;;;2.90;;
24337;SDS011;12457;50.832;4.346;2022-07-29T08:33:47;8.52;;;3.33;;
24337;SDS011;12457;50.832;4.346;2022-07-29T08:36:13;8.80;;;3.53;;
24337;SDS011;12457;50.832;4.346;2022-07-29T08:38:39;6.70;;;3.40;;
24337;SDS011;12457;50.832;4.346;2022-07-29T08:41:04;11.52;;;3.00;;
24337;SDS011;12457;50.832;4.346;2022-07-29T08:43:31;6.18;;;2.40;;
24337;SDS011;12457;50.832;4.346;2022-07-29T08:45:57;10.15;;;3.28;;
24337;SDS011;12457;50.832;4.346;2022-07-29T08:48:22;6.82;;;3.05;;
24337;SDS011;12457;50.832;4.346;2022-07-29T08:50:51;15.38;;;2.92;;
24337;SDS011;12457;50.832;4.346;2022-07-29T08:53:20;8.30;;;3.17;;
24337;SDS011;12457;50.832;4.346;2022-07-29T08:55:57;7.18;;;2.88;;
24337;SDS011;12457;50.832;4.346;2022-07-29T08:58:24;8.40;;;2.90;;
24337;SDS011;12457;50.832;4.346;2022-07-29T09:00:55;12.43;;;2.90;;
24337;SDS011;12457;50.832;4.346;2022-07-29T09:03:35;6.15;;;2.10;;
24337;SDS011;12457;50.832;4.346;2022-07-29T09:06:04;7.65;;;2.50;;
24337;SDS011;12457;50.832;4.346;2022-07-29T09:08:33;4.30;;;2.30;;
24337;SDS011;12457;50.832;4.346;2022-07-29T09:11:05;6.03;;;2.70;;
24337;SDS011;12457;50.832;4.346;2022-07-29T09:13:35;5.78;;;2.80;;
24337;SDS011;12457;50.832;4.346;2022-07-29T09:16:07;4.95;;;2.78;;
24337;SDS011;12457;50.832;4.346;2022-07-29T09:18:34;8.68;;;3.03;;
24337;SDS011;12457;50.832;4.346;2022-07-29T09:21:05;8.55;;;2.78;;
24337;SDS011;12457;50.832;4.346;2022-07-29T09:24:01;9.35;;;2.83;;
24337;SDS011;12457;50.832;4.346;2022-07-29T09:26:28;12.27;;;2.53;;
24337;SDS011;12457;50.832;4.346;2022-07-29T09:28:59;8.98;;;3.22;;
24337;SDS011;12457;50.832;4.346;2022-07-29T09:31:41;8.23;;;2.97;;
24337;SDS011;12457;50.832;4.346;2022-07-29T09:34:09;7.15;;;2.38;;
24337;SDS011;12457;50.832;4.346;2022-07-29T09:36:43;10.38;;;3.15;;
24337;SDS011;12457;50.832;4.346;2022-07-29T09:41:50;10.90;;;3.17;;
24337;SDS011;12457;50.832;4.346;2022-07-29T09:44:18;6.53;;;2.75;;
24337;SDS011;12457;50.832;4.346;2022-07-29T09:46:56;6.47;;;3.38;;
24337;SDS011;12457;50.832;4.346;2022-07-29T09:49:23;6.07;;;2.80;;
24337;SDS011;12457;50.832;4.346;2022-07-29T09:51:59;6.68;;;2.20;;
24337;SDS011;12457;50.832;4.346;2022-07-29T09:54:26;12.13;;;2.65;;
24337;SDS011;12457;50.832;4.346;2022-07-29T09:56:58;9.13;;;2.97;;
24337;SDS011;12457;50.832;4.346;2022-07-29T09:59:36;6.60;;;2.70;;
24337;SDS011;12457;50.832;4.346;2022-07-29T10:02:10;5.63;;;2.38;;
24337;SDS011;12457;50.832;4.346;2022-07-29T10:04:41;8.70;;;2.50;;
24337;SDS011;12457;50.832;4.346;2022-07-29T10:07:07;13.00;;;2.83;;
24337;SDS011;12457;50.832;4.346;2022-07-29T10:09:33;7.57;;;2.35;;
24337;SDS011;12457;50.832;4.346;2022-07-29T10:12:09;7.50;;;2.67;;
24337;SDS011;12457;50.832;4.346;2022-07-29T10:14:39;11.75;;;2.92;;
24337;SDS011;12457;50.832;4.346;2022-07-29T10:17:06;5.45;;;2.42;;
24337;SDS011;12457;50.832;4.346;2022-07-29T10:19:34;8.80;;;2.60;;
24337;SDS011;12457;50.832;4.346;2022-07-29T10:22:02;4.50;;;2.08;;
24337;SDS011;12457;50.832;4.346;2022-07-29T10:24:29;5.30;;;2.53;;
24337;SDS011;12457;50.832;4.346;2022-07-29T10:26:57;4.32;;;2.22;;
24337;SDS011;12457;50.832;4.346;2022-07-29T10:29:25;8.25;;;2.22;;
24337;SDS011;12457;50.832;4.346;2022-07-29T10:37:33;5.47;;;2.20;;
24337;SDS011;12457;50.832;4.346;2022-07-29T10:40:26;4.82;;;2.03;;
24337;SDS011;12457;50.832;4.346;2022-07-29T10:43:17;3.78;;;2.25;;
24337;SDS011;12457;50.832;4.346;2022-07-29T10:45:57;6.53;;;2.10;;
24337;SDS011;12457;50.832;4.346;2022-07-29T10:48:26;5.00;;;1.90;;
24337;SDS011;12457;50.832;4.346;2022-07-29T10:50:55;10.70;;;2.35;;
24337;SDS011;12457;50.832;4.346;2022-07-29T11:01:45;7.55;;;2.63;;
24337;SDS011;12457;50.832;4.346;2022-07-29T11:04:15;6.45;;;2.10;;
24337;SDS011;12457;50.832;4.346;2022-07-29T11:09:27;5.25;;;2.22;;
24337;SDS011;12457;50.832;4.346;2022-07-29T11:11:55;6.93;;;2.88;;
24337;SDS011;12457;50.832;4.346;2022-07-29T11:17:19;5.13;;;2.70;;
24337;SDS011;12457;50.832;4.346;2022-07-29T11:19:44;7.53;;;3.30;;
24337;SDS011;12457;50.832;4.346;2022-07-29T11:22:11;7.97;;;3.50;;
24337;SDS011;12457;50.832;4.346;2022-07-29T11:27:41;12.27;;;3.10;;
24337;SDS011;12457;50.832;4.346;2022-07-29T11:30:08;7.35;;;3.22;;
24337;SDS011;12457;50.832;4.346;2022-07-29T11:32:38;9.88;;;2.75;;
24337;SDS011;12457;50.832;4.346;2022-07-29T11:35:13;6.60;;;2.45;;
24337;SDS011;12457;50.832;4.346;2022-07-29T11:37:40;5.55;;;2.30;;
24337;SDS011;12457;50.832;4.346;2022-07-29T11:45:16;9.05;;;3.58;;
24337;SDS011;12457;50.832;4.346;2022-07-29T11:50:15;6.22;;;3.40;;
24337;SDS011;12457;50.832;4.346;2022-07-29T11:53:01;7.50;;;3.30;;
24337;SDS011;12457;50.832;4.346;2022-07-29T11:55:31;10.63;;;3.45;;
24337;SDS011;12457;50.832;4.346;2022-07-29T11:58:01;8.75;;;3.13;;
24337;SDS011;12457;50.832;4.346;2022-07-29T12:00:31;10.30;;;3.30;;
24337;SDS011;12457;50.832;4.346;2022-07-29T12:03:05;7.22;;;2.88;;
24337;SDS011;12457;50.832;4.346;2022-07-29T12:08:13;8.88;;;2.80;;
24337;SDS011;12457;50.832;4.346;2022-07-29T12:10:48;14.35;;;3.30;;
24337;SDS011;12457;50.832;4.346;2022-07-29T12:13:16;6.80;;;3.33;;
24337;SDS011;12457;50.832;4.346;2022-07-29T12:15:51;16.30;;;3.10;;
24337;SDS011;12457;50.832;4.346;2022-07-29T12:18:25;7.18;;;2.95;;
24337;SDS011;12457;50.832;4.346;2022-07-29T12:20:58;10.68;;;2.88;;
24337;SDS011;12457;50.832;4.346;2022-07-29T12:23:25;10.50;;;2.90;;
24337;SDS011;12457;50.832;4.346;2022-07-29T12:25:51;12.00;;;3.92;;
24337;SDS011;12457;50.832;4.346;2022-07-29T12:28:17;7.72;;;3.50;;
24337;SDS011;12457;50.832;4.346;2022-07-29T12:30:44;12.05;;;2.72;;
24337;SDS011;12457;50.832;4.346;2022-07-29T12:33:14;5.78;;;2.30;;
24337;SDS011;12457;50.832;4.346;2022-07-29T12:35:41;7.55;;;2.83;;
24337;SDS011;12457;50.832;4.346;2022-07-29T12:38:14;11.10;;;3.38;;
24337;SDS011;12457;50.832;4.346;2022-07-29T12:40:44;6.50;;;3.00;;
24337;SDS011;12457;50.832;4.346;2022-07-29T12:43:12;10.07;;;2.95;;
24337;SDS011;12457;50.832;4.346;2022-07-29T12:45:44;8.55;;;3.20;;
24337;SDS011;12457;50.832;4.346;2022-07-29T12:48:12;7.53;;;2.70;;
24337;SDS011;12457;50.832;4.346;2022-07-29T12:50:58;7.88;;;2.75;;
24337;SDS011;12457;50.832;4.346;2022-07-29T12:53:33;7.15;;;2.42;;
24337;SDS011;12457;50.832;4.346;2022-07-29T12:56:00;8.18;;;2.35;;
24337;SDS011;12457;50.832;4.346;2022-07-29T12:58:36;8.75;;;2.47;;
24337;SDS011;12457;50.832;4.346;2022-07-29T13:03:56;9.50;;;2.75;;
24337;SDS011;12457;50.832;4.346;2022-07-29T13:09:11;10.32;;;2.90;;
24337;SDS011;12457;50.832;4.346;2022-07-29T13:11:45;15.73;;;2.65;;
24337;SDS011;12457;50.832;4.346;2022-07-29T13:14:13;7.90;;;2.33;;
24337;SDS011;12457;50.832;4.346;2022-07-29T13:17:07;8.52;;;2.10;;
24337;SDS011;12457;50.832;4.346;2022-07-29T13:19:45;6.40;;;1.90;;
24337;SDS011;12457;50.832;4.346;2022-07-29T13:22:19;7.97;;;2.17;;
24337;SDS011;12457;50.832;4.346;2022-07-29T13:27:28;9.55;;;2.80;;
24337;SDS011;12457;50.832;4.346;2022-07-29T13:29:57;7.38;;;2.42;;
24337;SDS011;12457;50.832;4.346;2022-07-29T13:32:25;10.02;;;2.30;;
24337;SDS011;12457;50.832;4.346;2022-07-29T13:34:53;3.67;;;2.17;;
24337;SDS011;12457;50.832;4.346;2022-07-29T13:37:19;4.80;;;1.73;;
24337;SDS011;12457;50.832;4.346;2022-07-29T13:39:44;7.45;;;2.28;;
24337;SDS011;12457;50.832;4.346;2022-07-29T13:42:11;6.40;;;2.00;;
24337;SDS011;12457;50.832;4.346;2022-07-29T13:44:42;6.47;;;2.47;;
24337;SDS011;12457;50.832;4.346;2022-07-29T13:47:08;8.98;;;2.38;;
24337;SDS011;12457;50.832;4.346;2022-07-29T13:49:36;9.93;;;2.45;;
24337;SDS011;12457;50.832;4.346;2022-07-29T13:52:02;7.68;;;1.90;;
24337;SDS011;12457;50.832;4.346;2022-07-29T13:54:29;5.88;;;1.83;;
24337;SDS011;12457;50.832;4.346;2022-07-29T13:56:55;6.40;;;2.28;;
24337;SDS011;12457;50.832;4.346;2022-07-29T13:59:21;8.48;;;1.85;;
24337;SDS011;12457;50.832;4.346;2022-07-29T14:01:47;5.85;;;1.90;;
24337;SDS011;12457;50.832;4.346;2022-07-29T14:04:13;5.78;;;1.75;;
24337;SDS011;12457;50.832;4.346;2022-07-29T14:06:39;7.75;;;2.28;;
24337;SDS011;12457;50.832;4.346;2022-07-29T14:09:07;8.10;;;1.70;;
24337;SDS011;12457;50.832;4.346;2022-07-29T14:11:33;6.18;;;2.00;;
24337;SDS011;12457;50.832;4.346;2022-07-29T14:13:59;4.28;;;1.48;;
24337;SDS011;12457;50.832;4.346;2022-07-29T14:16:25;4.95;;;1.85;;
24337;SDS011;12457;50.832;4.346;2022-07-29T14:18:51;4.07;;;1.77;;
24337;SDS011;12457;50.832;4.346;2022-07-29T14:21:17;8.82;;;2.17;;
24337;SDS011;12457;50.832;4.346;2022-07-29T14:23:43;4.75;;;2.35;;
24337;SDS011;12457;50.832;4.346;2022-07-29T14:26:09;9.38;;;2.20;;
24337;SDS011;12457;50.832;4.346;2022-07-29T14:28:34;5.85;;;1.92;;
24337;SDS011;12457;50.832;4.346;2022-07-29T14:31:00;3.05;;;2.17;;
24337;SDS011;12457;50.832;4.346;2022-07-29T14:33:26;6.82;;;2.00;;
24337;SDS011;12457;50.832;4.346;2022-07-29T14:35:51;10.90;;;2.13;;
24337;SDS011;12457;50.832;4.346;2022-07-29T14:38:17;4.90;;;1.95;;
24337;SDS011;12457;50.832;4.346;2022-07-29T14:40:43;7.15;;;1.90;;
24337;SDS011;12457;50.832;4.346;2022-07-29T14:43:08;4.45;;;2.20;;
24337;SDS011;12457;50.832;4.346;2022-07-29T14:45:34;5.65;;;2.30;;
24337;SDS011;12457;50.832;4.346;2022-07-29T14:48:00;5.95;;;1.90;;
24337;SDS011;12457;50.832;4.346;2022-07-29T14:50:25;6.10;;;1.88;;
24337;SDS011;12457;50.832;4.346;2022-07-29T14:52:51;7.60;;;1.60;;
24337;SDS011;12457;50.832;4.346;2022-07-29T14:55:17;6.60;;;1.70;;
24337;SDS011;12457;50.832;4.346;2022-07-29T14:57:43;7.38;;;2.08;;
24337;SDS011;12457;50.832;4.346;2022-07-29T15:00:09;9.35;;;2.15;;
24337;SDS011;12457;50.832;4.346;2022-07-29T15:02:36;8.07;;;1.98;;
24337;SDS011;12457;50.832;4.346;2022-07-29T15:05:02;4.90;;;2.10;;
24337;SDS011;12457;50.832;4.346;2022-07-29T15:07:28;6.47;;;2.47;;
24337;SDS011;12457;50.832;4.346;2022-07-29T15:09:53;5.18;;;2.17;;
24337;SDS011;12457;50.832;4.346;2022-07-29T15:12:19;5.97;;;2.08;;
24337;SDS011;12457;50.832;4.346;2022-07-29T15:14:45;6.47;;;2.03;;
24337;SDS011;12457;50.832;4.346;2022-07-29T15:17:11;4.47;;;1.98;;
24337;SDS011;12457;50.832;4.346;2022-07-29T15:19:37;6.47;;;2.15;;
24337;SDS011;12457;50.832;4.346;2022-07-29T15:22:03;3.80;;;1.75;;
24337;SDS011;12457;50.832;4.346;2022-07-29T15:24:29;9.38;;;1.83;;
24337;SDS011;12457;50.832;4.346;2022-07-29T15:26:55;8.32;;;2.22;;
24337;SDS011;12457;50.832;4.346;2022-07-29T15:29:21;7.68;;;2.33;;
24337;SDS011;12457;50.832;4.346;2022-07-29T15:31:47;10.50;;;2.35;;
24337;SDS011;12457;50.832;4.346;2022-07-29T15:34:13;13.38;;;2.17;;
24337;SDS011;12457;50.832;4.346;2022-07-29T15:36:38;7.68;;;2.42;;
24337;SDS011;12457;50.832;4.346;2022-07-29T15:39:06;4.72;;;2.60;;
24337;SDS011;12457;50.832;4.346;2022-07-29T15:41:32;15.25;;;2.50;;
24337;SDS011;12457;50.832;4.346;2022-07-29T15:43:58;6.35;;;2.88;;
24337;SDS011;12457;50.832;4.346;2022-07-29T15:46:25;7.82;;;3.60;;
24337;SDS011;12457;50.832;4.346;2022-07-29T15:49:09;11.07;;;3.08;;
24337;SDS011;12457;50.832;4.346;2022-07-29T15:51:35;8.85;;;3.05;;
24337;SDS011;12457;50.832;4.346;2022-07-29T15:54:02;14.30;;;3.60;;
24337;SDS011;12457;50.832;4.346;2022-07-29T15:56:28;12.75;;;3.67;;